Exeland, Wisconsin
Current Conditions -  °F | °C
As of 6:55 AM on Saturday 25 Oct 2014 (Local Time) from KRCX Reporting Station
Clear Clear  
Wind Chill: 46°   Ceiling: Unl
Heat Index: 49°   Visibility: 10mi
Dew Point: 37°   Wind: 8mph
Humidity: 61%   Direction: 280°W
Pressure: 29.9"   Gusts: NA
Location:  45.67°N, 91.24°W
Report Text: KRCX 251155Z AUTO 28007KT 10SM CLR 10/03 A2990 RMK AO2 T00960025 10125 20076
Loading
Personal Weather Stations






























Interactive Weather Map
Tropical Storm Tracking
New forecast layout! Learn more

10-Day Weather Forecast

Advertisements
Track Severe Weather on mobile